sensor_id;sensor_type;location;lat;lon;timestamp;P1;durP1;ratioP1;P2;durP2;ratioP2
18144;SDS011;14857;41.200;-8.326;2022-11-13T00:00:22;87.60;;;36.28;;
18144;SDS011;14857;41.200;-8.326;2022-11-13T00:03:11;82.38;;;36.03;;
18144;SDS011;14857;41.200;-8.326;2022-11-13T00:05:58;87.28;;;37.78;;
18144;SDS011;14857;41.200;-8.326;2022-11-13T00:08:46;90.47;;;37.53;;
18144;SDS011;14857;41.200;-8.326;2022-11-13T00:11:33;79.47;;;34.95;;
18144;SDS011;14857;41.200;-8.326;2022-11-13T00:14:20;76.53;;;32.58;;
18144;SDS011;14857;41.200;-8.326;2022-11-13T00:17:07;94.43;;;40.00;;
18144;SDS011;14857;41.200;-8.326;2022-11-13T00:19:56;94.15;;;37.38;;
18144;SDS011;14857;41.200;-8.326;2022-11-13T00:22:43;82.97;;;35.50;;
18144;SDS011;14857;41.200;-8.326;2022-11-13T00:25:30;82.40;;;37.20;;
18144;SDS011;14857;41.200;-8.326;2022-11-13T00:28:20;90.00;;;35.17;;
18144;SDS011;14857;41.200;-8.326;2022-11-13T00:31:08;86.80;;;36.08;;
18144;SDS011;14857;41.200;-8.326;2022-11-13T00:33:56;81.85;;;34.33;;
18144;SDS011;14857;41.200;-8.326;2022-11-13T00:37:06;91.35;;;36.45;;
18144;SDS011;14857;41.200;-8.326;2022-11-13T00:39:53;87.45;;;37.80;;
18144;SDS011;14857;41.200;-8.326;2022-11-13T00:42:43;88.82;;;35.95;;
18144;SDS011;14857;41.200;-8.326;2022-11-13T00:45:31;91.13;;;34.50;;
18144;SDS011;14857;41.200;-8.326;2022-11-13T00:48:18;82.65;;;36.63;;
18144;SDS011;14857;41.200;-8.326;2022-11-13T00:51:05;78.28;;;33.90;;
18144;SDS011;14857;41.200;-8.326;2022-11-13T00:53:54;72.70;;;32.35;;
18144;SDS011;14857;41.200;-8.326;2022-11-13T00:56:41;77.10;;;31.77;;
18144;SDS011;14857;41.200;-8.326;2022-11-13T00:59:28;83.55;;;35.88;;
18144;SDS011;14857;41.200;-8.326;2022-11-13T01:02:15;89.20;;;34.65;;
18144;SDS011;14857;41.200;-8.326;2022-11-13T01:05:03;95.18;;;35.17;;
18144;SDS011;14857;41.200;-8.326;2022-11-13T01:07:50;87.28;;;36.00;;
18144;SDS011;14857;41.200;-8.326;2022-11-13T01:10:39;86.63;;;36.22;;
18144;SDS011;14857;41.200;-8.326;2022-11-13T01:13:31;94.72;;;36.80;;
18144;SDS011;14857;41.200;-8.326;2022-11-13T01:16:19;97.35;;;37.65;;
18144;SDS011;14857;41.200;-8.326;2022-11-13T01:19:07;93.28;;;35.72;;
18144;SDS011;14857;41.200;-8.326;2022-11-13T01:21:54;80.10;;;34.45;;
18144;SDS011;14857;41.200;-8.326;2022-11-13T01:24:41;93.53;;;38.03;;
18144;SDS011;14857;41.200;-8.326;2022-11-13T01:27:30;84.65;;;37.50;;
18144;SDS011;14857;41.200;-8.326;2022-11-13T01:30:18;85.22;;;35.20;;
18144;SDS011;14857;41.200;-8.326;2022-11-13T01:33:05;86.25;;;34.00;;
18144;SDS011;14857;41.200;-8.326;2022-11-13T01:35:52;78.40;;;34.22;;
18144;SDS011;14857;41.200;-8.326;2022-11-13T01:38:44;87.18;;;35.92;;
18144;SDS011;14857;41.200;-8.326;2022-11-13T01:41:32;81.90;;;33.67;;
18144;SDS011;14857;41.200;-8.326;2022-11-13T01:44:21;79.65;;;35.90;;
18144;SDS011;14857;41.200;-8.326;2022-11-13T01:47:09;87.05;;;34.72;;
18144;SDS011;14857;41.200;-8.326;2022-11-13T01:49:57;84.97;;;34.72;;
18144;SDS011;14857;41.200;-8.326;2022-11-13T01:56:06;73.97;;;32.05;;
18144;SDS011;14857;41.200;-8.326;2022-11-13T01:58:56;78.63;;;32.70;;
18144;SDS011;14857;41.200;-8.326;2022-11-13T02:02:23;72.80;;;30.48;;
18144;SDS011;14857;41.200;-8.326;2022-11-13T02:08:31;74.22;;;31.67;;
18144;SDS011;14857;41.200;-8.326;2022-11-13T02:11:24;68.18;;;28.90;;
18144;SDS011;14857;41.200;-8.326;2022-11-13T02:14:14;76.05;;;30.00;;
18144;SDS011;14857;41.200;-8.326;2022-11-13T02:17:08;71.95;;;29.27;;
18144;SDS011;14857;41.200;-8.326;2022-11-13T02:20:09;69.97;;;28.90;;
18144;SDS011;14857;41.200;-8.326;2022-11-13T02:22:59;70.35;;;31.65;;
18144;SDS011;14857;41.200;-8.326;2022-11-13T02:25:55;61.05;;;29.77;;
18144;SDS011;14857;41.200;-8.326;2022-11-13T02:28:42;79.53;;;31.15;;
18144;SDS011;14857;41.200;-8.326;2022-11-13T02:31:30;72.72;;;30.95;;
18144;SDS011;14857;41.200;-8.326;2022-11-13T02:34:16;76.20;;;30.55;;
18144;SDS011;14857;41.200;-8.326;2022-11-13T02:37:03;69.22;;;28.88;;
18144;SDS011;14857;41.200;-8.326;2022-11-13T02:39:50;68.68;;;29.63;;
18144;SDS011;14857;41.200;-8.326;2022-11-13T02:42:38;64.03;;;27.35;;
18144;SDS011;14857;41.200;-8.326;2022-11-13T02:45:26;69.55;;;29.92;;
18144;SDS011;14857;41.200;-8.326;2022-11-13T02:48:13;68.85;;;30.83;;
18144;SDS011;14857;41.200;-8.326;2022-11-13T02:51:01;68.00;;;27.48;;
18144;SDS011;14857;41.200;-8.326;2022-11-13T02:53:48;68.72;;;29.48;;
18144;SDS011;14857;41.200;-8.326;2022-11-13T02:56:48;74.38;;;29.48;;
18144;SDS011;14857;41.200;-8.326;2022-11-13T02:59:36;78.45;;;30.08;;
18144;SDS011;14857;41.200;-8.326;2022-11-13T03:02:24;78.55;;;31.40;;
18144;SDS011;14857;41.200;-8.326;2022-11-13T03:05:11;74.60;;;30.92;;
18144;SDS011;14857;41.200;-8.326;2022-11-13T03:07:58;66.43;;;29.13;;
18144;SDS011;14857;41.200;-8.326;2022-11-13T03:10:45;81.93;;;30.13;;
18144;SDS011;14857;41.200;-8.326;2022-11-13T03:13:32;62.65;;;25.10;;
18144;SDS011;14857;41.200;-8.326;2022-11-13T03:16:20;57.70;;;23.00;;
18144;SDS011;14857;41.200;-8.326;2022-11-13T03:19:08;68.55;;;29.77;;
18144;SDS011;14857;41.200;-8.326;2022-11-13T03:21:55;61.05;;;27.83;;
18144;SDS011;14857;41.200;-8.326;2022-11-13T03:24:43;61.47;;;26.73;;
18144;SDS011;14857;41.200;-8.326;2022-11-13T03:27:34;69.78;;;27.88;;
18144;SDS011;14857;41.200;-8.326;2022-11-13T03:30:21;56.80;;;26.13;;
18144;SDS011;14857;41.200;-8.326;2022-11-13T03:33:09;66.05;;;28.67;;
18144;SDS011;14857;41.200;-8.326;2022-11-13T03:35:56;66.82;;;30.15;;
18144;SDS011;14857;41.200;-8.326;2022-11-13T03:38:44;65.07;;;26.65;;
18144;SDS011;14857;41.200;-8.326;2022-11-13T03:41:31;65.35;;;27.10;;
18144;SDS011;14857;41.200;-8.326;2022-11-13T03:44:18;67.72;;;28.20;;
18144;SDS011;14857;41.200;-8.326;2022-11-13T03:47:05;64.28;;;30.33;;
18144;SDS011;14857;41.200;-8.326;2022-11-13T03:49:55;60.35;;;26.23;;
18144;SDS011;14857;41.200;-8.326;2022-11-13T03:52:42;55.58;;;24.42;;
18144;SDS011;14857;41.200;-8.326;2022-11-13T03:55:29;63.90;;;27.52;;
18144;SDS011;14857;41.200;-8.326;2022-11-13T03:58:16;63.92;;;27.42;;
18144;SDS011;14857;41.200;-8.326;2022-11-13T04:01:03;59.05;;;28.17;;
18144;SDS011;14857;41.200;-8.326;2022-11-13T04:03:50;69.55;;;29.73;;
18144;SDS011;14857;41.200;-8.326;2022-11-13T04:06:38;72.95;;;30.27;;
18144;SDS011;14857;41.200;-8.326;2022-11-13T04:09:25;68.57;;;29.17;;
18144;SDS011;14857;41.200;-8.326;2022-11-13T04:12:12;65.55;;;30.05;;
18144;SDS011;14857;41.200;-8.326;2022-11-13T04:14:59;65.75;;;29.40;;
18144;SDS011;14857;41.200;-8.326;2022-11-13T04:17:47;64.88;;;27.83;;
18144;SDS011;14857;41.200;-8.326;2022-11-13T04:20:34;58.10;;;27.08;;
18144;SDS011;14857;41.200;-8.326;2022-11-13T04:23:23;66.18;;;27.23;;
18144;SDS011;14857;41.200;-8.326;2022-11-13T04:26:10;65.07;;;26.60;;
18144;SDS011;14857;41.200;-8.326;2022-11-13T04:28:57;71.10;;;28.20;;
18144;SDS011;14857;41.200;-8.326;2022-11-13T04:31:44;55.53;;;25.40;;
18144;SDS011;14857;41.200;-8.326;2022-11-13T04:34:31;70.28;;;26.63;;
18144;SDS011;14857;41.200;-8.326;2022-11-13T04:37:18;58.75;;;25.35;;
18144;SDS011;14857;41.200;-8.326;2022-11-13T04:40:07;60.13;;;27.50;;
18144;SDS011;14857;41.200;-8.326;2022-11-13T04:42:55;63.10;;;26.65;;
18144;SDS011;14857;41.200;-8.326;2022-11-13T04:45:41;62.42;;;27.02;;
18144;SDS011;14857;41.200;-8.326;2022-11-13T04:48:29;65.28;;;29.55;;
18144;SDS011;14857;41.200;-8.326;2022-11-13T04:51:16;63.47;;;25.67;;
18144;SDS011;14857;41.200;-8.326;2022-11-13T04:54:02;68.30;;;27.55;;
18144;SDS011;14857;41.200;-8.326;2022-11-13T04:56:51;58.08;;;24.25;;
18144;SDS011;14857;41.200;-8.326;2022-11-13T04:59:38;67.65;;;28.73;;
18144;SDS011;14857;41.200;-8.326;2022-11-13T05:05:52;57.97;;;24.80;;
18144;SDS011;14857;41.200;-8.326;2022-11-13T05:08:39;50.53;;;21.80;;
18144;SDS011;14857;41.200;-8.326;2022-11-13T05:11:26;53.00;;;22.98;;
18144;SDS011;14857;41.200;-8.326;2022-11-13T05:14:15;56.35;;;23.80;;
18144;SDS011;14857;41.200;-8.326;2022-11-13T05:17:02;44.78;;;22.13;;
18144;SDS011;14857;41.200;-8.326;2022-11-13T05:19:49;54.42;;;21.90;;
18144;SDS011;14857;41.200;-8.326;2022-11-13T05:22:37;56.63;;;24.13;;
18144;SDS011;14857;41.200;-8.326;2022-11-13T05:25:24;57.67;;;23.83;;
18144;SDS011;14857;41.200;-8.326;2022-11-13T05:28:11;58.75;;;25.80;;
18144;SDS011;14857;41.200;-8.326;2022-11-13T05:31:03;58.05;;;24.77;;
18144;SDS011;14857;41.200;-8.326;2022-11-13T05:33:51;65.32;;;27.02;;
18144;SDS011;14857;41.200;-8.326;2022-11-13T05:36:39;57.78;;;24.10;;
18144;SDS011;14857;41.200;-8.326;2022-11-13T05:39:26;52.42;;;24.30;;
18144;SDS011;14857;41.200;-8.326;2022-11-13T05:42:13;61.33;;;27.40;;
18144;SDS011;14857;41.200;-8.326;2022-11-13T05:45:00;66.70;;;28.88;;
18144;SDS011;14857;41.200;-8.326;2022-11-13T05:47:48;103.15;;;43.60;;
18144;SDS011;14857;41.200;-8.326;2022-11-13T05:50:35;64.45;;;27.73;;
18144;SDS011;14857;41.200;-8.326;2022-11-13T05:53:22;64.97;;;24.25;;
18144;SDS011;14857;41.200;-8.326;2022-11-13T05:56:10;63.70;;;27.33;;
18144;SDS011;14857;41.200;-8.326;2022-11-13T05:58:59;71.00;;;30.75;;
18144;SDS011;14857;41.200;-8.326;2022-11-13T06:01:47;64.53;;;23.70;;
18144;SDS011;14857;41.200;-8.326;2022-11-13T06:04:36;57.85;;;25.35;;
18144;SDS011;14857;41.200;-8.326;2022-11-13T06:07:22;71.28;;;28.52;;
18144;SDS011;14857;41.200;-8.326;2022-11-13T06:10:09;56.25;;;26.48;;
18144;SDS011;14857;41.200;-8.326;2022-11-13T06:12:57;65.80;;;27.85;;
18144;SDS011;14857;41.200;-8.326;2022-11-13T06:15:44;59.92;;;25.98;;
18144;SDS011;14857;41.200;-8.326;2022-11-13T06:18:31;63.10;;;29.98;;
18144;SDS011;14857;41.200;-8.326;2022-11-13T06:21:21;52.45;;;24.95;;
18144;SDS011;14857;41.200;-8.326;2022-11-13T06:24:09;54.88;;;24.25;;
18144;SDS011;14857;41.200;-8.326;2022-11-13T06:26:58;59.15;;;25.50;;
18144;SDS011;14857;41.200;-8.326;2022-11-13T06:29:45;57.92;;;24.83;;
18144;SDS011;14857;41.200;-8.326;2022-11-13T06:32:32;50.10;;;22.60;;
18144;SDS011;14857;41.200;-8.326;2022-11-13T06:35:19;57.15;;;23.60;;
18144;SDS011;14857;41.200;-8.326;2022-11-13T06:38:07;56.80;;;24.63;;
18144;SDS011;14857;41.200;-8.326;2022-11-13T06:40:54;54.03;;;23.05;;
18144;SDS011;14857;41.200;-8.326;2022-11-13T06:43:42;50.67;;;21.27;;
18144;SDS011;14857;41.200;-8.326;2022-11-13T06:46:30;49.45;;;20.10;;
18144;SDS011;14857;41.200;-8.326;2022-11-13T06:49:17;51.03;;;21.20;;
18144;SDS011;14857;41.200;-8.326;2022-11-13T06:52:04;53.40;;;21.70;;
18144;SDS011;14857;41.200;-8.326;2022-11-13T06:54:53;46.65;;;20.88;;
18144;SDS011;14857;41.200;-8.326;2022-11-13T06:57:40;44.63;;;20.10;;
18144;SDS011;14857;41.200;-8.326;2022-11-13T07:00:27;48.00;;;18.83;;
18144;SDS011;14857;41.200;-8.326;2022-11-13T07:03:22;51.47;;;21.58;;
18144;SDS011;14857;41.200;-8.326;2022-11-13T07:06:11;47.58;;;20.33;;
18144;SDS011;14857;41.200;-8.326;2022-11-13T07:08:59;56.45;;;19.90;;
18144;SDS011;14857;41.200;-8.326;2022-11-13T07:11:48;51.28;;;22.77;;
18144;SDS011;14857;41.200;-8.326;2022-11-13T07:14:35;50.67;;;22.02;;
18144;SDS011;14857;41.200;-8.326;2022-11-13T07:17:22;45.92;;;18.98;;
18144;SDS011;14857;41.200;-8.326;2022-11-13T07:20:10;48.78;;;19.83;;
18144;SDS011;14857;41.200;-8.326;2022-11-13T07:22:58;53.53;;;20.85;;
18144;SDS011;14857;41.200;-8.326;2022-11-13T07:25:46;48.88;;;22.23;;
18144;SDS011;14857;41.200;-8.326;2022-11-13T07:28:34;51.88;;;23.08;;
18144;SDS011;14857;41.200;-8.326;2022-11-13T07:31:22;48.17;;;21.25;;
18144;SDS011;14857;41.200;-8.326;2022-11-13T07:34:09;53.03;;;21.83;;
18144;SDS011;14857;41.200;-8.326;2022-11-13T07:36:56;44.50;;;17.73;;
18144;SDS011;14857;41.200;-8.326;2022-11-13T07:39:43;42.92;;;19.52;;
18144;SDS011;14857;41.200;-8.326;2022-11-13T07:42:30;42.50;;;17.98;;
18144;SDS011;14857;41.200;-8.326;2022-11-13T07:45:18;52.28;;;20.80;;
18144;SDS011;14857;41.200;-8.326;2022-11-13T07:48:05;45.00;;;20.27;;
18144;SDS011;14857;41.200;-8.326;2022-11-13T07:50:52;51.05;;;22.23;;
18144;SDS011;14857;41.200;-8.326;2022-11-13T07:53:39;50.40;;;21.58;;
18144;SDS011;14857;41.200;-8.326;2022-11-13T07:56:27;42.45;;;18.88;;
18144;SDS011;14857;41.200;-8.326;2022-11-13T07:59:14;57.67;;;20.80;;
18144;SDS011;14857;41.200;-8.326;2022-11-13T08:02:02;52.13;;;20.40;;
18144;SDS011;14857;41.200;-8.326;2022-11-13T08:04:49;60.67;;;23.50;;
18144;SDS011;14857;41.200;-8.326;2022-11-13T08:07:36;41.28;;;19.58;;
18144;SDS011;14857;41.200;-8.326;2022-11-13T08:10:24;52.30;;;22.50;;
18144;SDS011;14857;41.200;-8.326;2022-11-13T08:13:11;50.53;;;21.60;;
18144;SDS011;14857;41.200;-8.326;2022-11-13T08:15:59;50.72;;;21.08;;
18144;SDS011;14857;41.200;-8.326;2022-11-13T08:18:47;44.05;;;17.50;;
18144;SDS011;14857;41.200;-8.326;2022-11-13T08:21:35;41.05;;;18.00;;
18144;SDS011;14857;41.200;-8.326;2022-11-13T08:24:29;54.63;;;26.50;;
18144;SDS011;14857;41.200;-8.326;2022-11-13T08:27:17;45.65;;;20.45;;
18144;SDS011;14857;41.200;-8.326;2022-11-13T08:30:04;40.00;;;18.50;;
18144;SDS011;14857;41.200;-8.326;2022-11-13T08:32:52;38.38;;;18.52;;
18144;SDS011;14857;41.200;-8.326;2022-11-13T08:35:41;36.53;;;15.23;;
18144;SDS011;14857;41.200;-8.326;2022-11-13T08:38:28;29.42;;;13.70;;
18144;SDS011;14857;41.200;-8.326;2022-11-13T08:41:15;31.15;;;11.73;;
18144;SDS011;14857;41.200;-8.326;2022-11-13T08:44:02;38.97;;;14.88;;
18144;SDS011;14857;41.200;-8.326;2022-11-13T08:46:50;45.75;;;16.05;;
18144;SDS011;14857;41.200;-8.326;2022-11-13T08:49:36;32.30;;;14.85;;
18144;SDS011;14857;41.200;-8.326;2022-11-13T08:52:25;34.15;;;15.50;;
18144;SDS011;14857;41.200;-8.326;2022-11-13T08:55:11;34.20;;;13.32;;
18144;SDS011;14857;41.200;-8.326;2022-11-13T08:57:59;27.80;;;13.93;;
18144;SDS011;14857;41.200;-8.326;2022-11-13T09:00:46;32.25;;;14.00;;
18144;SDS011;14857;41.200;-8.326;2022-11-13T09:03:34;26.60;;;14.50;;
18144;SDS011;14857;41.200;-8.326;2022-11-13T09:06:21;29.80;;;14.52;;
18144;SDS011;14857;41.200;-8.326;2022-11-13T09:09:10;36.33;;;14.55;;
18144;SDS011;14857;41.200;-8.326;2022-11-13T09:11:57;28.98;;;13.52;;
18144;SDS011;14857;41.200;-8.326;2022-11-13T09:14:44;24.20;;;12.30;;
18144;SDS011;14857;41.200;-8.326;2022-11-13T09:17:31;21.40;;;10.98;;
18144;SDS011;14857;41.200;-8.326;2022-11-13T09:20:18;18.35;;;11.25;;
18144;SDS011;14857;41.200;-8.326;2022-11-13T09:23:07;23.50;;;11.85;;
18144;SDS011;14857;41.200;-8.326;2022-11-13T09:25:59;27.15;;;12.48;;
18144;SDS011;14857;41.200;-8.326;2022-11-13T09:28:46;18.95;;;10.55;;
18144;SDS011;14857;41.200;-8.326;2022-11-13T09:31:33;20.83;;;10.65;;
18144;SDS011;14857;41.200;-8.326;2022-11-13T09:34:24;22.52;;;10.90;;
18144;SDS011;14857;41.200;-8.326;2022-11-13T09:37:12;24.27;;;10.68;;
18144;SDS011;14857;41.200;-8.326;2022-11-13T09:40:00;16.17;;;10.00;;
18144;SDS011;14857;41.200;-8.326;2022-11-13T09:42:49;20.83;;;10.40;;
18144;SDS011;14857;41.200;-8.326;2022-11-13T09:45:36;20.85;;;9.85;;
18144;SDS011;14857;41.200;-8.326;2022-11-13T09:48:27;24.38;;;11.98;;
18144;SDS011;14857;41.200;-8.326;2022-11-13T09:51:20;17.80;;;10.38;;
18144;SDS011;14857;41.200;-8.326;2022-11-13T09:54:11;18.73;;;9.63;;
18144;SDS011;14857;41.200;-8.326;2022-11-13T09:57:01;21.77;;;11.05;;
18144;SDS011;14857;41.200;-8.326;2022-11-13T09:59:58;24.05;;;11.10;;
18144;SDS011;14857;41.200;-8.326;2022-11-13T10:02:51;27.10;;;11.85;;
18144;SDS011;14857;41.200;-8.326;2022-11-13T10:05:53;21.92;;;10.45;;
18144;SDS011;14857;41.200;-8.326;2022-11-13T10:08:50;23.00;;;11.80;;
18144;SDS011;14857;41.200;-8.326;2022-11-13T10:11:42;24.40;;;12.20;;
18144;SDS011;14857;41.200;-8.326;2022-11-13T10:14:35;25.63;;;12.60;;
18144;SDS011;14857;41.200;-8.326;2022-11-13T10:17:30;31.45;;;16.98;;
18144;SDS011;14857;41.200;-8.326;2022-11-13T10:20:22;59.72;;;31.90;;
18144;SDS011;14857;41.200;-8.326;2022-11-13T10:23:12;53.45;;;32.83;;
18144;SDS011;14857;41.200;-8.326;2022-11-13T10:26:06;47.20;;;31.33;;
18144;SDS011;14857;41.200;-8.326;2022-11-13T10:29:00;28.60;;;16.05;;
18144;SDS011;14857;41.200;-8.326;2022-11-13T10:31:51;25.70;;;13.63;;
18144;SDS011;14857;41.200;-8.326;2022-11-13T10:34:40;30.45;;;15.55;;
18144;SDS011;14857;41.200;-8.326;2022-11-13T10:37:34;25.95;;;14.80;;
18144;SDS011;14857;41.200;-8.326;2022-11-13T10:40:32;31.88;;;14.52;;
18144;SDS011;14857;41.200;-8.326;2022-11-13T10:43:21;28.73;;;14.07;;
18144;SDS011;14857;41.200;-8.326;2022-11-13T10:46:15;28.92;;;13.65;;
18144;SDS011;14857;41.200;-8.326;2022-11-13T10:49:11;25.00;;;12.63;;
18144;SDS011;14857;41.200;-8.326;2022-11-13T10:52:01;25.83;;;12.07;;
18144;SDS011;14857;41.200;-8.326;2022-11-13T10:55:03;30.88;;;13.48;;
18144;SDS011;14857;41.200;-8.326;2022-11-13T10:58:00;31.20;;;21.20;;
18144;SDS011;14857;41.200;-8.326;2022-11-13T11:00:48;24.80;;;15.70;;
18144;SDS011;14857;41.200;-8.326;2022-11-13T11:03:36;26.48;;;13.77;;
18144;SDS011;14857;41.200;-8.326;2022-11-13T11:06:34;22.90;;;12.25;;
18144;SDS011;14857;41.200;-8.326;2022-11-13T11:09:44;22.17;;;12.77;;
18144;SDS011;14857;41.200;-8.326;2022-11-13T11:12:33;26.98;;;15.32;;
18144;SDS011;14857;41.200;-8.326;2022-11-13T11:15:21;28.45;;;15.23;;
18144;SDS011;14857;41.200;-8.326;2022-11-13T11:18:18;28.67;;;14.98;;
18144;SDS011;14857;41.200;-8.326;2022-11-13T11:21:11;24.42;;;15.45;;
18144;SDS011;14857;41.200;-8.326;2022-11-13T11:24:03;18.02;;;11.55;;
18144;SDS011;14857;41.200;-8.326;2022-11-13T11:26:58;20.02;;;8.77;;
18144;SDS011;14857;41.200;-8.326;2022-11-13T11:29:52;12.20;;;6.35;;
18144;SDS011;14857;41.200;-8.326;2022-11-13T11:32:50;8.15;;;4.25;;
18144;SDS011;14857;41.200;-8.326;2022-11-13T11:35:44;10.60;;;4.60;;
18144;SDS011;14857;41.200;-8.326;2022-11-13T11:38:36;10.07;;;4.43;;
18144;SDS011;14857;41.200;-8.326;2022-11-13T11:41:33;11.45;;;3.85;;
18144;SDS011;14857;41.200;-8.326;2022-11-13T11:44:30;13.32;;;4.65;;
18144;SDS011;14857;41.200;-8.326;2022-11-13T11:47:24;10.38;;;4.20;;
18144;SDS011;14857;41.200;-8.326;2022-11-13T11:50:13;13.95;;;4.22;;
18144;SDS011;14857;41.200;-8.326;2022-11-13T11:53:06;10.35;;;4.32;;
18144;SDS011;14857;41.200;-8.326;2022-11-13T11:56:05;15.80;;;4.53;;
18144;SDS011;14857;41.200;-8.326;2022-11-13T12:05:44;12.20;;;5.15;;
18144;SDS011;14857;41.200;-8.326;2022-11-13T12:08:43;19.13;;;4.80;;
18144;SDS011;14857;41.200;-8.326;2022-11-13T12:11:38;11.63;;;4.80;;
18144;SDS011;14857;41.200;-8.326;2022-11-13T12:14:32;11.00;;;3.50;;
18144;SDS011;14857;41.200;-8.326;2022-11-13T12:17:31;10.85;;;4.25;;
18144;SDS011;14857;41.200;-8.326;2022-11-13T12:20:34;7.88;;;2.97;;
18144;SDS011;14857;41.200;-8.326;2022-11-13T12:23:33;6.97;;;3.30;;
18144;SDS011;14857;41.200;-8.326;2022-11-13T12:26:31;5.07;;;2.55;;
18144;SDS011;14857;41.200;-8.326;2022-11-13T12:29:30;5.55;;;2.38;;
18144;SDS011;14857;41.200;-8.326;2022-11-13T12:32:36;9.70;;;3.35;;
18144;SDS011;14857;41.200;-8.326;2022-11-13T12:35:32;5.43;;;2.40;;
18144;SDS011;14857;41.200;-8.326;2022-11-13T12:38:24;9.70;;;2.40;;
18144;SDS011;14857;41.200;-8.326;2022-11-13T12:41:21;7.38;;;2.00;;
18144;SDS011;14857;41.200;-8.326;2022-11-13T12:55:53;5.40;;;2.03;;
18144;SDS011;14857;41.200;-8.326;2022-11-13T12:58:51;8.30;;;2.22;;
18144;SDS011;14857;41.200;-8.326;2022-11-13T13:02:02;6.82;;;1.98;;
18144;SDS011;14857;41.200;-8.326;2022-11-13T13:05:17;9.82;;;1.88;;
18144;SDS011;14857;41.200;-8.326;2022-11-13T13:08:14;7.82;;;2.22;;
18144;SDS011;14857;41.200;-8.326;2022-11-13T13:11:13;7.18;;;2.10;;
18144;SDS011;14857;41.200;-8.326;2022-11-13T13:17:31;5.55;;;2.08;;
18144;SDS011;14857;41.200;-8.326;2022-11-13T13:20:28;8.45;;;2.35;;
18144;SDS011;14857;41.200;-8.326;2022-11-13T13:23:24;8.70;;;2.10;;
18144;SDS011;14857;41.200;-8.326;2022-11-13T13:26:15;8.88;;;1.90;;
18144;SDS011;14857;41.200;-8.326;2022-11-13T13:29:15;6.07;;;1.25;;
18144;SDS011;14857;41.200;-8.326;2022-11-13T13:32:08;5.50;;;1.77;;
18144;SDS011;14857;41.200;-8.326;2022-11-13T13:35:07;4.85;;;1.65;;
18144;SDS011;14857;41.200;-8.326;2022-11-13T13:38:00;5.43;;;1.80;;
18144;SDS011;14857;41.200;-8.326;2022-11-13T13:41:00;11.43;;;1.90;;
18144;SDS011;14857;41.200;-8.326;2022-11-13T13:44:06;6.75;;;1.40;;
18144;SDS011;14857;41.200;-8.326;2022-11-13T13:47:10;4.20;;;1.50;;
18144;SDS011;14857;41.200;-8.326;2022-11-13T13:50:03;3.88;;;1.60;;
18144;SDS011;14857;41.200;-8.326;2022-11-13T13:52:53;3.92;;;1.27;;
18144;SDS011;14857;41.200;-8.326;2022-11-13T13:55:43;10.75;;;1.70;;
18144;SDS011;14857;41.200;-8.326;2022-11-13T13:58:34;5.47;;;1.48;;
18144;SDS011;14857;41.200;-8.326;2022-11-13T14:01:28;6.47;;;1.75;;
18144;SDS011;14857;41.200;-8.326;2022-11-13T14:04:17;8.07;;;1.00;;
18144;SDS011;14857;41.200;-8.326;2022-11-13T14:07:16;4.18;;;1.88;;
18144;SDS011;14857;41.200;-8.326;2022-11-13T14:10:06;5.38;;;1.83;;
18144;SDS011;14857;41.200;-8.326;2022-11-13T14:12:59;4.35;;;2.00;;
18144;SDS011;14857;41.200;-8.326;2022-11-13T14:15:46;7.38;;;1.98;;
18144;SDS011;14857;41.200;-8.326;2022-11-13T14:18:35;5.97;;;2.03;;
18144;SDS011;14857;41.200;-8.326;2022-11-13T14:21:22;7.15;;;2.20;;
18144;SDS011;14857;41.200;-8.326;2022-11-13T14:24:12;7.57;;;2.17;;
18144;SDS011;14857;41.200;-8.326;2022-11-13T14:27:03;5.35;;;2.15;;
18144;SDS011;14857;41.200;-8.326;2022-11-13T14:29:52;5.00;;;1.92;;
18144;SDS011;14857;41.200;-8.326;2022-11-13T14:32:42;5.75;;;2.22;;
18144;SDS011;14857;41.200;-8.326;2022-11-13T14:35:33;3.90;;;1.60;;
18144;SDS011;14857;41.200;-8.326;2022-11-13T14:38:24;4.35;;;1.83;;
18144;SDS011;14857;41.200;-8.326;2022-11-13T14:41:17;8.30;;;2.13;;
18144;SDS011;14857;41.200;-8.326;2022-11-13T14:44:08;8.48;;;2.55;;
18144;SDS011;14857;41.200;-8.326;2022-11-13T14:47:00;7.57;;;2.30;;
18144;SDS011;14857;41.200;-8.326;2022-11-13T14:49:48;3.45;;;1.45;;
18144;SDS011;14857;41.200;-8.326;2022-11-13T14:52:37;8.13;;;2.35;;
18144;SDS011;14857;41.200;-8.326;2022-11-13T14:55:25;5.47;;;2.30;;
18144;SDS011;14857;41.200;-8.326;2022-11-13T14:58:24;8.85;;;2.92;;
18144;SDS011;14857;41.200;-8.326;2022-11-13T15:01:13;3.47;;;1.30;;
18144;SDS011;14857;41.200;-8.326;2022-11-13T15:04:02;7.85;;;1.35;;
18144;SDS011;14857;41.200;-8.326;2022-11-13T15:06:49;5.25;;;1.95;;
18144;SDS011;14857;41.200;-8.326;2022-11-13T15:09:41;2.42;;;1.20;;
18144;SDS011;14857;41.200;-8.326;2022-11-13T15:12:29;5.93;;;1.73;;
18144;SDS011;14857;41.200;-8.326;2022-11-13T15:15:17;4.22;;;1.50;;
18144;SDS011;14857;41.200;-8.326;2022-11-13T15:18:05;7.50;;;1.58;;
18144;SDS011;14857;41.200;-8.326;2022-11-13T15:20:55;4.30;;;2.08;;
18144;SDS011;14857;41.200;-8.326;2022-11-13T15:23:42;2.72;;;1.55;;
18144;SDS011;14857;41.200;-8.326;2022-11-13T15:26:31;9.20;;;2.08;;
18144;SDS011;14857;41.200;-8.326;2022-11-13T15:29:17;3.70;;;1.70;;
18144;SDS011;14857;41.200;-8.326;2022-11-13T15:32:04;10.65;;;1.73;;
18144;SDS011;14857;41.200;-8.326;2022-11-13T15:34:55;3.30;;;1.27;;
18144;SDS011;14857;41.200;-8.326;2022-11-13T15:37:42;4.45;;;1.65;;
18144;SDS011;14857;41.200;-8.326;2022-11-13T15:40:30;3.78;;;1.80;;
18144;SDS011;14857;41.200;-8.326;2022-11-13T15:43:18;6.93;;;2.58;;
18144;SDS011;14857;41.200;-8.326;2022-11-13T15:46:06;10.70;;;3.38;;
18144;SDS011;14857;41.200;-8.326;2022-11-13T15:48:59;7.57;;;2.75;;
18144;SDS011;14857;41.200;-8.326;2022-11-13T15:51:46;10.32;;;2.63;;
18144;SDS011;14857;41.200;-8.326;2022-11-13T15:54:33;8.20;;;2.50;;
18144;SDS011;14857;41.200;-8.326;2022-11-13T15:57:24;4.82;;;1.70;;
18144;SDS011;14857;41.200;-8.326;2022-11-13T16:00:14;7.50;;;2.33;;
18144;SDS011;14857;41.200;-8.326;2022-11-13T16:03:05;6.40;;;2.30;;
18144;SDS011;14857;41.200;-8.326;2022-11-13T16:05:56;6.93;;;2.00;;
18144;SDS011;14857;41.200;-8.326;2022-11-13T16:08:44;7.40;;;3.28;;
18144;SDS011;14857;41.200;-8.326;2022-11-13T16:11:32;13.90;;;4.03;;
18144;SDS011;14857;41.200;-8.326;2022-11-13T16:14:22;8.05;;;2.85;;
18144;SDS011;14857;41.200;-8.326;2022-11-13T16:17:11;7.82;;;3.28;;
18144;SDS011;14857;41.200;-8.326;2022-11-13T16:20:02;12.15;;;3.92;;
18144;SDS011;14857;41.200;-8.326;2022-11-13T16:22:51;9.57;;;2.97;;
18144;SDS011;14857;41.200;-8.326;2022-11-13T16:25:39;9.32;;;3.03;;
18144;SDS011;14857;41.200;-8.326;2022-11-13T16:28:27;8.30;;;3.15;;
18144;SDS011;14857;41.200;-8.326;2022-11-13T16:31:21;13.27;;;4.60;;
18144;SDS011;14857;41.200;-8.326;2022-11-13T16:34:10;19.23;;;5.10;;
18144;SDS011;14857;41.200;-8.326;2022-11-13T16:36:57;8.85;;;4.85;;
18144;SDS011;14857;41.200;-8.326;2022-11-13T16:39:44;15.23;;;6.28;;
18144;SDS011;14857;41.200;-8.326;2022-11-13T16:42:31;14.23;;;5.15;;
18144;SDS011;14857;41.200;-8.326;2022-11-13T16:45:19;12.77;;;4.47;;
18144;SDS011;14857;41.200;-8.326;2022-11-13T16:48:09;13.88;;;3.85;;
18144;SDS011;14857;41.200;-8.326;2022-11-13T16:51:01;9.23;;;3.42;;
18144;SDS011;14857;41.200;-8.326;2022-11-13T16:53:49;12.30;;;4.20;;
18144;SDS011;14857;41.200;-8.326;2022-11-13T16:56:37;13.48;;;4.30;;
18144;SDS011;14857;41.200;-8.326;2022-11-13T16:59:24;14.35;;;4.85;;